sensor_id;sensor_type;location;lat;lon;timestamp;temperature;humidity
59855;DHT22;45732;52.850;6.896;2023-01-24T00:00:32;4.10;99.90
59855;DHT22;45732;52.850;6.896;2023-01-24T00:02:58;4.10;99.90
59855;DHT22;45732;52.850;6.896;2023-01-24T00:05:23;4.10;99.90
59855;DHT22;45732;52.850;6.896;2023-01-24T00:07:49;4.10;99.90
59855;DHT22;45732;52.850;6.896;2023-01-24T00:10:15;4.10;99.90
59855;DHT22;45732;52.850;6.896;2023-01-24T00:12:41;4.10;99.90
59855;DHT22;45732;52.850;6.896;2023-01-24T00:15:07;4.10;99.90
59855;DHT22;45732;52.850;6.896;2023-01-24T00:17:32;4.10;99.90
59855;DHT22;45732;52.850;6.896;2023-01-24T00:19:58;4.10;99.90
59855;DHT22;45732;52.850;6.896;2023-01-24T00:22:55;4.10;99.90
59855;DHT22;45732;52.850;6.896;2023-01-24T00:25:22;4.10;99.90
59855;DHT22;45732;52.850;6.896;2023-01-24T00:27:48;4.10;99.90
59855;DHT22;45732;52.850;6.896;2023-01-24T00:30:14;4.10;99.90
59855;DHT22;45732;52.850;6.896;2023-01-24T00:32:40;4.10;99.90
59855;DHT22;45732;52.850;6.896;2023-01-24T00:35:06;4.10;99.90
59855;DHT22;45732;52.850;6.896;2023-01-24T00:37:32;4.10;99.90
59855;DHT22;45732;52.850;6.896;2023-01-24T00:39:58;4.10;99.90
59855;DHT22;45732;52.850;6.896;2023-01-24T00:42:24;4.00;99.90
59855;DHT22;45732;52.850;6.896;2023-01-24T00:44:49;4.00;99.90
59855;DHT22;45732;52.850;6.896;2023-01-24T00:47:15;4.10;99.90
59855;DHT22;45732;52.850;6.896;2023-01-24T00:49:41;4.10;99.90
59855;DHT22;45732;52.850;6.896;2023-01-24T00:52:06;4.10;99.90
59855;DHT22;45732;52.850;6.896;2023-01-24T00:54:32;4.00;99.90
59855;DHT22;45732;52.850;6.896;2023-01-24T00:56:58;4.10;99.90
59855;DHT22;45732;52.850;6.896;2023-01-24T00:59:23;4.10;99.90
59855;DHT22;45732;52.850;6.896;2023-01-24T01:01:49;4.00;99.90
59855;DHT22;45732;52.850;6.896;2023-01-24T01:04:15;4.10;99.90
59855;DHT22;45732;52.850;6.896;2023-01-24T01:06:41;4.10;99.90
59855;DHT22;45732;52.850;6.896;2023-01-24T01:09:06;4.10;99.90
59855;DHT22;45732;52.850;6.896;2023-01-24T01:11:33;4.00;99.90
59855;DHT22;45732;52.850;6.896;2023-01-24T01:13:59;4.10;99.90
59855;DHT22;45732;52.850;6.896;2023-01-24T01:16:25;4.10;99.90
59855;DHT22;45732;52.850;6.896;2023-01-24T01:18:53;4.10;99.90
59855;DHT22;45732;52.850;6.896;2023-01-24T01:21:21;4.10;99.90
59855;DHT22;45732;52.850;6.896;2023-01-24T01:23:47;4.10;99.90
59855;DHT22;45732;52.850;6.896;2023-01-24T01:26:18;4.10;99.90
59855;DHT22;45732;52.850;6.896;2023-01-24T01:28:45;4.00;99.90
59855;DHT22;45732;52.850;6.896;2023-01-24T01:31:11;4.00;99.90
59855;DHT22;45732;52.850;6.896;2023-01-24T01:33:37;4.00;99.90
59855;DHT22;45732;52.850;6.896;2023-01-24T01:36:04;4.00;99.90
59855;DHT22;45732;52.850;6.896;2023-01-24T01:38:29;4.00;99.90
59855;DHT22;45732;52.850;6.896;2023-01-24T01:40:56;4.00;99.90
59855;DHT22;45732;52.850;6.896;2023-01-24T01:43:24;4.10;99.90
59855;DHT22;45732;52.850;6.896;2023-01-24T01:45:52;4.00;99.90
59855;DHT22;45732;52.850;6.896;2023-01-24T01:48:26;4.00;99.90
59855;DHT22;45732;52.850;6.896;2023-01-24T01:53:27;4.00;99.90
59855;DHT22;45732;52.850;6.896;2023-01-24T01:56:02;4.00;99.90
59855;DHT22;45732;52.850;6.896;2023-01-24T01:58:30;4.10;99.90
59855;DHT22;45732;52.850;6.896;2023-01-24T02:00:55;4.10;99.90
59855;DHT22;45732;52.850;6.896;2023-01-24T02:03:29;4.10;99.90
59855;DHT22;45732;52.850;6.896;2023-01-24T02:06:33;4.10;99.90
59855;DHT22;45732;52.850;6.896;2023-01-24T02:09:04;4.20;99.90
59855;DHT22;45732;52.850;6.896;2023-01-24T02:11:30;4.20;99.90
59855;DHT22;45732;52.850;6.896;2023-01-24T02:14:10;4.20;99.90
59855;DHT22;45732;52.850;6.896;2023-01-24T02:16:54;4.20;99.90
59855;DHT22;45732;52.850;6.896;2023-01-24T02:21:54;4.10;99.90
59855;DHT22;45732;52.850;6.896;2023-01-24T02:24:29;4.10;99.90
59855;DHT22;45732;52.850;6.896;2023-01-24T02:26:57;4.10;99.90
59855;DHT22;45732;52.850;6.896;2023-01-24T02:29:22;4.10;99.90
59855;DHT22;45732;52.850;6.896;2023-01-24T02:32:05;4.10;99.90
59855;DHT22;45732;52.850;6.896;2023-01-24T02:34:31;4.10;99.90
59855;DHT22;45732;52.850;6.896;2023-01-24T02:37:03;4.10;99.90
59855;DHT22;45732;52.850;6.896;2023-01-24T02:39:33;4.10;99.90
59855;DHT22;45732;52.850;6.896;2023-01-24T02:42:05;4.10;99.90
59855;DHT22;45732;52.850;6.896;2023-01-24T02:47:05;4.10;99.90
59855;DHT22;45732;52.850;6.896;2023-01-24T02:49:30;4.10;99.90
59855;DHT22;45732;52.850;6.896;2023-01-24T02:51:57;4.10;99.90
59855;DHT22;45732;52.850;6.896;2023-01-24T02:54:41;4.10;99.90
59855;DHT22;45732;52.850;6.896;2023-01-24T02:57:06;4.10;99.90
59855;DHT22;45732;52.850;6.896;2023-01-24T02:59:51;4.10;99.90
59855;DHT22;45732;52.850;6.896;2023-01-24T03:02:16;4.00;99.90
59855;DHT22;45732;52.850;6.896;2023-01-24T03:04:42;4.00;99.90
59855;DHT22;45732;52.850;6.896;2023-01-24T03:07:08;4.00;99.90
59855;DHT22;45732;52.850;6.896;2023-01-24T03:09:33;4.10;99.90
59855;DHT22;45732;52.850;6.896;2023-01-24T03:12:00;4.00;99.90
59855;DHT22;45732;52.850;6.896;2023-01-24T03:14:45;4.00;99.90
59855;DHT22;45732;52.850;6.896;2023-01-24T03:17:30;4.00;99.90
59855;DHT22;45732;52.850;6.896;2023-01-24T03:20:14;4.00;99.90
59855;DHT22;45732;52.850;6.896;2023-01-24T03:22:58;4.00;99.90
59855;DHT22;45732;52.850;6.896;2023-01-24T03:25:43;4.00;99.90
59855;DHT22;45732;52.850;6.896;2023-01-24T03:28:27;4.10;99.90
59855;DHT22;45732;52.850;6.896;2023-01-24T03:31:11;4.10;99.90
59855;DHT22;45732;52.850;6.896;2023-01-24T03:33:56;4.10;99.90
59855;DHT22;45732;52.850;6.896;2023-01-24T03:36:40;4.00;99.90
59855;DHT22;45732;52.850;6.896;2023-01-24T03:39:06;4.00;99.90
59855;DHT22;45732;52.850;6.896;2023-01-24T03:41:50;4.00;99.90
59855;DHT22;45732;52.850;6.896;2023-01-24T03:44:15;4.00;99.90
59855;DHT22;45732;52.850;6.896;2023-01-24T03:46:41;4.00;99.90
59855;DHT22;45732;52.850;6.896;2023-01-24T03:49:07;4.00;99.90
59855;DHT22;45732;52.850;6.896;2023-01-24T03:51:33;4.00;99.90
59855;DHT22;45732;52.850;6.896;2023-01-24T03:54:18;4.00;99.90
59855;DHT22;45732;52.850;6.896;2023-01-24T03:56:44;4.00;99.90
59855;DHT22;45732;52.850;6.896;2023-01-24T03:59:09;4.10;99.90
59855;DHT22;45732;52.850;6.896;2023-01-24T04:01:35;4.10;99.90
59855;DHT22;45732;52.850;6.896;2023-01-24T04:04:01;4.10;99.90
59855;DHT22;45732;52.850;6.896;2023-01-24T04:06:27;4.00;99.90
59855;DHT22;45732;52.850;6.896;2023-01-24T04:08:52;4.00;99.90
59855;DHT22;45732;52.850;6.896;2023-01-24T04:11:18;4.10;99.90
59855;DHT22;45732;52.850;6.896;2023-01-24T04:13:44;4.00;99.90
59855;DHT22;45732;52.850;6.896;2023-01-24T04:16:10;4.00;99.90
59855;DHT22;45732;52.850;6.896;2023-01-24T04:18:36;4.00;99.90
59855;DHT22;45732;52.850;6.896;2023-01-24T04:21:05;4.00;99.90
59855;DHT22;45732;52.850;6.896;2023-01-24T04:23:31;4.00;99.90
59855;DHT22;45732;52.850;6.896;2023-01-24T04:25:57;4.00;99.90
59855;DHT22;45732;52.850;6.896;2023-01-24T04:28:25;4.00;99.90
59855;DHT22;45732;52.850;6.896;2023-01-24T04:31:02;4.00;99.90
59855;DHT22;45732;52.850;6.896;2023-01-24T04:33:27;3.90;99.90
59855;DHT22;45732;52.850;6.896;2023-01-24T04:35:59;3.90;99.90
59855;DHT22;45732;52.850;6.896;2023-01-24T04:38:25;3.90;99.90
59855;DHT22;45732;52.850;6.896;2023-01-24T04:40:59;3.90;99.90
59855;DHT22;45732;52.850;6.896;2023-01-24T04:43:25;3.90;99.90
59855;DHT22;45732;52.850;6.896;2023-01-24T04:45:54;3.90;99.90
59855;DHT22;45732;52.850;6.896;2023-01-24T04:48:20;3.90;99.90
59855;DHT22;45732;52.850;6.896;2023-01-24T04:50:46;3.90;99.90
59855;DHT22;45732;52.850;6.896;2023-01-24T04:53:11;3.90;99.90
59855;DHT22;45732;52.850;6.896;2023-01-24T04:55:37;3.90;99.90
59855;DHT22;45732;52.850;6.896;2023-01-24T04:58:03;3.90;99.90
59855;DHT22;45732;52.850;6.896;2023-01-24T05:00:29;3.90;99.90
59855;DHT22;45732;52.850;6.896;2023-01-24T05:02:54;3.90;99.90
59855;DHT22;45732;52.850;6.896;2023-01-24T05:05:20;3.90;99.90
59855;DHT22;45732;52.850;6.896;2023-01-24T05:07:45;3.90;99.90
59855;DHT22;45732;52.850;6.896;2023-01-24T05:10:11;3.90;99.90
59855;DHT22;45732;52.850;6.896;2023-01-24T05:12:37;3.90;99.90
59855;DHT22;45732;52.850;6.896;2023-01-24T05:15:03;3.90;99.90
59855;DHT22;45732;52.850;6.896;2023-01-24T05:17:29;3.80;99.90
59855;DHT22;45732;52.850;6.896;2023-01-24T05:19:54;3.90;99.90
59855;DHT22;45732;52.850;6.896;2023-01-24T05:22:20;3.90;99.90
59855;DHT22;45732;52.850;6.896;2023-01-24T05:24:46;3.90;99.90
59855;DHT22;45732;52.850;6.896;2023-01-24T05:27:11;3.90;99.90
59855;DHT22;45732;52.850;6.896;2023-01-24T05:29:37;3.90;99.90
59855;DHT22;45732;52.850;6.896;2023-01-24T05:32:03;3.90;99.90
59855;DHT22;45732;52.850;6.896;2023-01-24T05:34:29;3.90;99.90
59855;DHT22;45732;52.850;6.896;2023-01-24T05:36:54;3.90;99.90
59855;DHT22;45732;52.850;6.896;2023-01-24T05:39:20;3.90;99.90
59855;DHT22;45732;52.850;6.896;2023-01-24T05:41:46;3.90;99.90
59855;DHT22;45732;52.850;6.896;2023-01-24T05:44:11;3.90;99.90
59855;DHT22;45732;52.850;6.896;2023-01-24T05:46:37;3.90;99.90
59855;DHT22;45732;52.850;6.896;2023-01-24T05:49:03;3.80;99.90
59855;DHT22;45732;52.850;6.896;2023-01-24T05:51:28;3.80;99.90
59855;DHT22;45732;52.850;6.896;2023-01-24T05:53:54;3.80;99.90
59855;DHT22;45732;52.850;6.896;2023-01-24T05:56:20;3.80;99.90
59855;DHT22;45732;52.850;6.896;2023-01-24T05:58:47;3.80;99.90
59855;DHT22;45732;52.850;6.896;2023-01-24T06:01:19;3.80;99.90
59855;DHT22;45732;52.850;6.896;2023-01-24T06:03:48;3.80;99.90
59855;DHT22;45732;52.850;6.896;2023-01-24T06:06:16;3.80;99.90
59855;DHT22;45732;52.850;6.896;2023-01-24T06:08:43;3.80;99.90
59855;DHT22;45732;52.850;6.896;2023-01-24T06:11:17;3.80;99.90
59855;DHT22;45732;52.850;6.896;2023-01-24T06:13:43;3.70;99.90
59855;DHT22;45732;52.850;6.896;2023-01-24T06:16:18;3.80;99.90
59855;DHT22;45732;52.850;6.896;2023-01-24T06:18:44;3.90;99.90
59855;DHT22;45732;52.850;6.896;2023-01-24T06:24:04;3.80;99.90
59855;DHT22;45732;52.850;6.896;2023-01-24T06:26:31;3.80;99.90
59855;DHT22;45732;52.850;6.896;2023-01-24T06:28:57;3.80;99.90
59855;DHT22;45732;52.850;6.896;2023-01-24T06:31:26;3.80;99.90
59855;DHT22;45732;52.850;6.896;2023-01-24T06:40:06;3.80;99.90
59855;DHT22;45732;52.850;6.896;2023-01-24T06:42:33;3.80;99.90
59855;DHT22;45732;52.850;6.896;2023-01-24T06:44:59;3.80;99.90
59855;DHT22;45732;52.850;6.896;2023-01-24T06:47:25;3.70;99.90
59855;DHT22;45732;52.850;6.896;2023-01-24T06:49:53;3.80;99.90
59855;DHT22;45732;52.850;6.896;2023-01-24T06:52:19;3.80;99.90
59855;DHT22;45732;52.850;6.896;2023-01-24T06:54:45;3.80;99.90
59855;DHT22;45732;52.850;6.896;2023-01-24T06:57:11;3.80;99.90
59855;DHT22;45732;52.850;6.896;2023-01-24T06:59:36;3.80;99.90
59855;DHT22;45732;52.850;6.896;2023-01-24T07:02:02;3.70;99.90
59855;DHT22;45732;52.850;6.896;2023-01-24T07:04:28;3.70;99.90
59855;DHT22;45732;52.850;6.896;2023-01-24T07:06:54;3.60;99.90
59855;DHT22;45732;52.850;6.896;2023-01-24T07:09:23;3.70;99.90
59855;DHT22;45732;52.850;6.896;2023-01-24T07:11:49;3.70;99.90
59855;DHT22;45732;52.850;6.896;2023-01-24T07:14:21;3.70;99.90
59855;DHT22;45732;52.850;6.896;2023-01-24T07:16:48;3.60;99.90
59855;DHT22;45732;52.850;6.896;2023-01-24T07:19:16;3.70;99.90
59855;DHT22;45732;52.850;6.896;2023-01-24T07:21:43;3.60;99.90
59855;DHT22;45732;52.850;6.896;2023-01-24T07:24:17;3.70;99.90
59855;DHT22;45732;52.850;6.896;2023-01-24T07:26:43;3.70;99.90
59855;DHT22;45732;52.850;6.896;2023-01-24T07:29:09;3.70;99.90
59855;DHT22;45732;52.850;6.896;2023-01-24T07:31:37;3.70;99.90
59855;DHT22;45732;52.850;6.896;2023-01-24T07:34:02;3.70;99.90
59855;DHT22;45732;52.850;6.896;2023-01-24T07:36:28;3.70;99.90
59855;DHT22;45732;52.850;6.896;2023-01-24T07:38:55;3.70;99.90
59855;DHT22;45732;52.850;6.896;2023-01-24T07:41:21;3.70;99.90
59855;DHT22;45732;52.850;6.896;2023-01-24T07:43:47;3.60;99.90
59855;DHT22;45732;52.850;6.896;2023-01-24T07:46:13;3.60;99.90
59855;DHT22;45732;52.850;6.896;2023-01-24T07:48:39;3.60;99.90
59855;DHT22;45732;52.850;6.896;2023-01-24T07:51:05;3.60;99.90
59855;DHT22;45732;52.850;6.896;2023-01-24T07:53:31;3.60;99.90
59855;DHT22;45732;52.850;6.896;2023-01-24T07:56:00;3.60;99.90
59855;DHT22;45732;52.850;6.896;2023-01-24T07:58:26;3.60;99.90
59855;DHT22;45732;52.850;6.896;2023-01-24T08:00:52;3.60;99.90
59855;DHT22;45732;52.850;6.896;2023-01-24T08:03:17;3.60;99.90
59855;DHT22;45732;52.850;6.896;2023-01-24T08:05:43;3.60;99.90
59855;DHT22;45732;52.850;6.896;2023-01-24T08:08:09;3.60;99.90
59855;DHT22;45732;52.850;6.896;2023-01-24T08:10:35;3.60;99.90
59855;DHT22;45732;52.850;6.896;2023-01-24T08:13:00;3.60;99.90
59855;DHT22;45732;52.850;6.896;2023-01-24T08:15:26;3.50;99.90
59855;DHT22;45732;52.850;6.896;2023-01-24T08:17:52;3.50;99.90
59855;DHT22;45732;52.850;6.896;2023-01-24T08:20:18;3.60;99.90
59855;DHT22;45732;52.850;6.896;2023-01-24T08:22:44;3.60;99.90
59855;DHT22;45732;52.850;6.896;2023-01-24T08:25:10;3.60;99.90
59855;DHT22;45732;52.850;6.896;2023-01-24T08:27:39;3.60;99.90
59855;DHT22;45732;52.850;6.896;2023-01-24T08:30:05;3.60;99.90
59855;DHT22;45732;52.850;6.896;2023-01-24T08:32:31;3.50;99.90
59855;DHT22;45732;52.850;6.896;2023-01-24T08:34:57;3.50;99.90
59855;DHT22;45732;52.850;6.896;2023-01-24T08:37:23;3.60;99.90
59855;DHT22;45732;52.850;6.896;2023-01-24T08:39:49;3.50;99.90
59855;DHT22;45732;52.850;6.896;2023-01-24T08:42:15;3.60;99.90
59855;DHT22;45732;52.850;6.896;2023-01-24T08:44:40;3.70;99.90
59855;DHT22;45732;52.850;6.896;2023-01-24T08:47:06;3.70;99.90
59855;DHT22;45732;52.850;6.896;2023-01-24T08:49:32;3.70;99.90
59855;DHT22;45732;52.850;6.896;2023-01-24T08:51:58;3.60;99.90
59855;DHT22;45732;52.850;6.896;2023-01-24T08:54:28;3.70;99.90
59855;DHT22;45732;52.850;6.896;2023-01-24T08:56:54;3.60;99.90
59855;DHT22;45732;52.850;6.896;2023-01-24T08:59:20;3.60;99.90
59855;DHT22;45732;52.850;6.896;2023-01-24T09:01:46;3.70;99.90
59855;DHT22;45732;52.850;6.896;2023-01-24T09:04:12;3.70;99.90
59855;DHT22;45732;52.850;6.896;2023-01-24T09:06:38;3.70;99.90
59855;DHT22;45732;52.850;6.896;2023-01-24T09:09:04;3.70;99.90
59855;DHT22;45732;52.850;6.896;2023-01-24T09:11:30;3.70;99.90
59855;DHT22;45732;52.850;6.896;2023-01-24T09:13:56;3.80;99.90
59855;DHT22;45732;52.850;6.896;2023-01-24T09:16:23;3.80;99.90
59855;DHT22;45732;52.850;6.896;2023-01-24T09:18:49;3.80;99.90
59855;DHT22;45732;52.850;6.896;2023-01-24T09:21:17;3.80;99.90
59855;DHT22;45732;52.850;6.896;2023-01-24T09:23:43;3.80;99.90
59855;DHT22;45732;52.850;6.896;2023-01-24T09:26:08;3.80;99.90
59855;DHT22;45732;52.850;6.896;2023-01-24T09:28:34;3.80;99.90
59855;DHT22;45732;52.850;6.896;2023-01-24T09:31:00;3.80;99.90
59855;DHT22;45732;52.850;6.896;2023-01-24T09:33:26;3.80;99.90
59855;DHT22;45732;52.850;6.896;2023-01-24T09:38:19;3.80;99.90
59855;DHT22;45732;52.850;6.896;2023-01-24T09:40:55;3.80;99.90
59855;DHT22;45732;52.850;6.896;2023-01-24T09:43:45;3.80;99.90
59855;DHT22;45732;52.850;6.896;2023-01-24T09:46:32;3.80;99.90
59855;DHT22;45732;52.850;6.896;2023-01-24T09:51:42;3.80;99.90
59855;DHT22;45732;52.850;6.896;2023-01-24T09:54:34;3.80;99.90
59855;DHT22;45732;52.850;6.896;2023-01-24T09:57:00;3.80;99.90
59855;DHT22;45732;52.850;6.896;2023-01-24T09:59:42;3.80;99.90
59855;DHT22;45732;52.850;6.896;2023-01-24T10:02:19;3.80;99.90
59855;DHT22;45732;52.850;6.896;2023-01-24T10:04:46;3.80;99.90
59855;DHT22;45732;52.850;6.896;2023-01-24T10:13:02;3.80;99.90
59855;DHT22;45732;52.850;6.896;2023-01-24T10:21:37;3.80;99.90
59855;DHT22;45732;52.850;6.896;2023-01-24T10:24:08;3.80;99.90
59855;DHT22;45732;52.850;6.896;2023-01-24T10:26:44;3.90;99.90
59855;DHT22;45732;52.850;6.896;2023-01-24T10:32:05;3.90;99.90
59855;DHT22;45732;52.850;6.896;2023-01-24T10:34:46;3.90;99.90
59855;DHT22;45732;52.850;6.896;2023-01-24T10:37:22;4.00;99.90
59855;DHT22;45732;52.850;6.896;2023-01-24T10:39:48;4.00;99.90
59855;DHT22;45732;52.850;6.896;2023-01-24T10:44:50;4.00;99.90
59855;DHT22;45732;52.850;6.896;2023-01-24T10:50:11;3.90;99.90
59855;DHT22;45732;52.850;6.896;2023-01-24T10:52:37;3.90;99.90
59855;DHT22;45732;52.850;6.896;2023-01-24T10:55:23;3.90;99.90
59855;DHT22;45732;52.850;6.896;2023-01-24T10:57:51;3.90;99.90
59855;DHT22;45732;52.850;6.896;2023-01-24T11:02:48;3.90;99.90
59855;DHT22;45732;52.850;6.896;2023-01-24T11:05:17;3.90;99.90
59855;DHT22;45732;52.850;6.896;2023-01-24T11:08:01;3.90;99.90
59855;DHT22;45732;52.850;6.896;2023-01-24T11:10:37;3.90;99.90
59855;DHT22;45732;52.850;6.896;2023-01-24T11:13:34;3.80;99.90
59855;DHT22;45732;52.850;6.896;2023-01-24T11:18:47;4.00;99.90
59855;DHT22;45732;52.850;6.896;2023-01-24T11:21:16;4.00;99.90
59855;DHT22;45732;52.850;6.896;2023-01-24T11:23:42;4.10;99.90
59855;DHT22;45732;52.850;6.896;2023-01-24T11:26:22;4.10;99.90
59855;DHT22;45732;52.850;6.896;2023-01-24T11:29:14;4.00;99.90
59855;DHT22;45732;52.850;6.896;2023-01-24T11:31:54;4.00;99.90
59855;DHT22;45732;52.850;6.896;2023-01-24T11:37:32;3.90;99.90
59855;DHT22;45732;52.850;6.896;2023-01-24T11:45:43;4.10;99.90
59855;DHT22;45732;52.850;6.896;2023-01-24T11:51:05;4.10;99.90
59855;DHT22;45732;52.850;6.896;2023-01-24T11:58:42;3.90;99.90
59855;DHT22;45732;52.850;6.896;2023-01-24T12:06:47;3.90;99.90
59855;DHT22;45732;52.850;6.896;2023-01-24T12:09:26;3.90;99.90
59855;DHT22;45732;52.850;6.896;2023-01-24T12:11:56;3.80;99.90
59855;DHT22;45732;52.850;6.896;2023-01-24T12:22:23;3.80;99.90
59855;DHT22;45732;52.850;6.896;2023-01-24T12:25:22;3.90;99.90
59855;DHT22;45732;52.850;6.896;2023-01-24T12:27:53;3.90;99.90
59855;DHT22;45732;52.850;6.896;2023-01-24T12:30:47;4.00;99.90
59855;DHT22;45732;52.850;6.896;2023-01-24T12:33:55;4.00;99.90
59855;DHT22;45732;52.850;6.896;2023-01-24T12:38:50;3.90;99.90
59855;DHT22;45732;52.850;6.896;2023-01-24T12:41:34;3.90;99.90
59855;DHT22;45732;52.850;6.896;2023-01-24T12:52:40;3.90;99.90
59855;DHT22;45732;52.850;6.896;2023-01-24T12:55:54;3.90;99.90
59855;DHT22;45732;52.850;6.896;2023-01-24T13:12:02;3.90;99.90
59855;DHT22;45732;52.850;6.896;2023-01-24T13:17:31;3.90;99.90
59855;DHT22;45732;52.850;6.896;2023-01-24T13:25:40;3.80;99.90
59855;DHT22;45732;52.850;6.896;2023-01-24T13:33:40;3.80;99.90
59855;DHT22;45732;52.850;6.896;2023-01-24T13:36:07;3.80;99.90
59855;DHT22;45732;52.850;6.896;2023-01-24T13:38:42;3.80;99.90
59855;DHT22;45732;52.850;6.896;2023-01-24T13:41:32;3.80;99.90
59855;DHT22;45732;52.850;6.896;2023-01-24T13:44:24;3.90;99.90
59855;DHT22;45732;52.850;6.896;2023-01-24T13:47:22;3.90;99.90
59855;DHT22;45732;52.850;6.896;2023-01-24T13:55:03;3.90;99.90
59855;DHT22;45732;52.850;6.896;2023-01-24T13:57:39;3.80;99.90
59855;DHT22;45732;52.850;6.896;2023-01-24T14:05:02;3.70;99.90
59855;DHT22;45732;52.850;6.896;2023-01-24T14:07:37;3.70;99.90
59855;DHT22;45732;52.850;6.896;2023-01-24T14:10:05;3.80;99.90
59855;DHT22;45732;52.850;6.896;2023-01-24T14:12:39;3.80;99.90
59855;DHT22;45732;52.850;6.896;2023-01-24T14:20:35;3.90;99.90
59855;DHT22;45732;52.850;6.896;2023-01-24T14:23:10;4.00;99.90
59855;DHT22;45732;52.850;6.896;2023-01-24T14:25:39;3.80;99.90
59855;DHT22;45732;52.850;6.896;2023-01-24T14:33:32;3.70;99.90
59855;DHT22;45732;52.850;6.896;2023-01-24T14:38:40;3.70;99.90
59855;DHT22;45732;52.850;6.896;2023-01-24T14:41:20;3.60;99.90
59855;DHT22;45732;52.850;6.896;2023-01-24T14:43:47;3.60;99.90
59855;DHT22;45732;52.850;6.896;2023-01-24T14:46:24;3.50;99.90
59855;DHT22;45732;52.850;6.896;2023-01-24T14:48:50;3.50;99.90
59855;DHT22;45732;52.850;6.896;2023-01-24T14:51:18;3.50;99.90
59855;DHT22;45732;52.850;6.896;2023-01-24T14:53:48;3.40;99.90
59855;DHT22;45732;52.850;6.896;2023-01-24T14:56:14;3.40;99.90
59855;DHT22;45732;52.850;6.896;2023-01-24T14:58:40;3.40;99.90
59855;DHT22;45732;52.850;6.896;2023-01-24T15:01:29;3.30;99.90
59855;DHT22;45732;52.850;6.896;2023-01-24T15:03:57;3.40;99.90
59855;DHT22;45732;52.850;6.896;2023-01-24T15:06:24;3.30;99.90
59855;DHT22;45732;52.850;6.896;2023-01-24T15:08:57;3.40;99.90
59855;DHT22;45732;52.850;6.896;2023-01-24T15:11:27;3.40;99.90
59855;DHT22;45732;52.850;6.896;2023-01-24T15:14:00;3.30;99.90
59855;DHT22;45732;52.850;6.896;2023-01-24T15:16:53;3.40;99.90
59855;DHT22;45732;52.850;6.896;2023-01-24T15:21:47;3.40;99.90
59855;DHT22;45732;52.850;6.896;2023-01-24T15:24:23;3.40;99.90
59855;DHT22;45732;52.850;6.896;2023-01-24T15:26:49;3.40;99.90
59855;DHT22;45732;52.850;6.896;2023-01-24T15:41:20;3.30;99.90
59855;DHT22;45732;52.850;6.896;2023-01-24T15:43:52;3.40;99.90
59855;DHT22;45732;52.850;6.896;2023-01-24T15:46:27;3.40;99.90
59855;DHT22;45732;52.850;6.896;2023-01-24T15:54:27;3.40;99.90
59855;DHT22;45732;52.850;6.896;2023-01-24T15:56:54;3.40;99.90
59855;DHT22;45732;52.850;6.896;2023-01-24T15:59:23;3.50;99.90
59855;DHT22;45732;52.850;6.896;2023-01-24T16:01:49;3.60;99.90
59855;DHT22;45732;52.850;6.896;2023-01-24T16:04:17;3.50;99.90
59855;DHT22;45732;52.850;6.896;2023-01-24T16:06:43;3.50;99.90
59855;DHT22;45732;52.850;6.896;2023-01-24T16:09:10;3.50;99.90
59855;DHT22;45732;52.850;6.896;2023-01-24T16:11:37;3.50;99.90
59855;DHT22;45732;52.850;6.896;2023-01-24T16:14:09;3.50;99.90
59855;DHT22;45732;52.850;6.896;2023-01-24T16:16:35;3.40;99.90
59855;DHT22;45732;52.850;6.896;2023-01-24T16:19:02;3.40;99.90
59855;DHT22;45732;52.850;6.896;2023-01-24T16:21:27;3.30;99.90
59855;DHT22;45732;52.850;6.896;2023-01-24T16:23:53;3.20;99.90
59855;DHT22;45732;52.850;6.896;2023-01-24T16:26:23;3.20;99.90
59855;DHT22;45732;52.850;6.896;2023-01-24T16:28:50;3.20;99.90
59855;DHT22;45732;52.850;6.896;2023-01-24T16:31:16;3.20;99.90
59855;DHT22;45732;52.850;6.896;2023-01-24T16:33:43;3.30;99.90
59855;DHT22;45732;52.850;6.896;2023-01-24T16:36:13;3.30;99.90
59855;DHT22;45732;52.850;6.896;2023-01-24T16:38:42;3.30;99.90
59855;DHT22;45732;52.850;6.896;2023-01-24T16:41:10;3.30;99.90
59855;DHT22;45732;52.850;6.896;2023-01-24T16:43:35;3.30;99.90
59855;DHT22;45732;52.850;6.896;2023-01-24T16:46:01;3.40;99.90
59855;DHT22;45732;52.850;6.896;2023-01-24T16:48:30;3.30;99.90
59855;DHT22;45732;52.850;6.896;2023-01-24T16:50:56;3.30;99.90
59855;DHT22;45732;52.850;6.896;2023-01-24T16:53:21;3.20;99.90
59855;DHT22;45732;52.850;6.896;2023-01-24T16:55:55;3.20;99.90
59855;DHT22;45732;52.850;6.896;2023-01-24T16:58:22;3.30;99.90
59855;DHT22;45732;52.850;6.896;2023-01-24T17:00:47;3.30;99.90
59855;DHT22;45732;52.850;6.896;2023-01-24T17:03:13;3.20;99.90
59855;DHT22;45732;52.850;6.896;2023-01-24T17:05:39;3.20;99.90
59855;DHT22;45732;52.850;6.896;2023-01-24T17:08:05;3.20;99.90
59855;DHT22;45732;52.850;6.896;2023-01-24T17:10:31;3.20;99.90
59855;DHT22;45732;52.850;6.896;2023-01-24T17:12:57;3.20;99.90
59855;DHT22;45732;52.850;6.896;2023-01-24T17:15:22;3.20;99.90
59855;DHT22;45732;52.850;6.896;2023-01-24T17:17:48;3.20;99.90
59855;DHT22;45732;52.850;6.896;2023-01-24T17:20:14;3.30;99.90
59855;DHT22;45732;52.850;6.896;2023-01-24T17:22:40;3.30;99.90
59855;DHT22;45732;52.850;6.896;2023-01-24T17:25:06;3.30;99.90
59855;DHT22;45732;52.850;6.896;2023-01-24T17:27:32;3.30;99.90
59855;DHT22;45732;52.850;6.896;2023-01-24T17:29:58;3.30;99.90
59855;DHT22;45732;52.850;6.896;2023-01-24T17:32:24;3.20;99.90
59855;DHT22;45732;52.850;6.896;2023-01-24T17:34:49;3.30;99.90
59855;DHT22;45732;52.850;6.896;2023-01-24T17:37:15;3.30;99.90
59855;DHT22;45732;52.850;6.896;2023-01-24T17:39:41;3.30;99.90
59855;DHT22;45732;52.850;6.896;2023-01-24T17:42:06;3.20;99.90
59855;DHT22;45732;52.850;6.896;2023-01-24T17:44:32;3.10;99.90
59855;DHT22;45732;52.850;6.896;2023-01-24T17:46:58;3.00;99.90
59855;DHT22;45732;52.850;6.896;2023-01-24T17:49:23;3.10;99.90
59855;DHT22;45732;52.850;6.896;2023-01-24T17:51:49;3.10;99.90
59855;DHT22;45732;52.850;6.896;2023-01-24T17:54:15;3.10;99.90
59855;DHT22;45732;52.850;6.896;2023-01-24T17:56:42;3.10;99.90
59855;DHT22;45732;52.850;6.896;2023-01-24T17:59:08;3.10;99.90
59855;DHT22;45732;52.850;6.896;2023-01-24T18:01:34;3.10;99.90
59855;DHT22;45732;52.850;6.896;2023-01-24T18:04:00;3.00;99.90
59855;DHT22;45732;52.850;6.896;2023-01-24T18:06:25;3.00;99.90
59855;DHT22;45732;52.850;6.896;2023-01-24T18:08:52;3.10;99.90
59855;DHT22;45732;52.850;6.896;2023-01-24T18:11:18;3.00;99.90
59855;DHT22;45732;52.850;6.896;2023-01-24T18:13:45;3.00;99.90
59855;DHT22;45732;52.850;6.896;2023-01-24T18:16:15;3.00;99.90
59855;DHT22;45732;52.850;6.896;2023-01-24T18:18:41;3.00;99.90
59855;DHT22;45732;52.850;6.896;2023-01-24T18:21:21;3.00;99.90
59855;DHT22;45732;52.850;6.896;2023-01-24T18:23:58;3.00;99.90
59855;DHT22;45732;52.850;6.896;2023-01-24T18:26:25;3.00;99.90
59855;DHT22;45732;52.850;6.896;2023-01-24T18:28:51;3.10;99.90
59855;DHT22;45732;52.850;6.896;2023-01-24T18:31:17;3.10;99.90
59855;DHT22;45732;52.850;6.896;2023-01-24T18:33:43;3.10;99.90
59855;DHT22;45732;52.850;6.896;2023-01-24T18:36:10;3.10;99.90
59855;DHT22;45732;52.850;6.896;2023-01-24T18:38:38;3.00;99.90